createdAt,value
2017-03-13T00:00:29.990Z,0
2017-03-13T00:01:29.983Z,0
2017-03-13T00:02:29.951Z,0
2017-03-13T00:03:29.928Z,0
2017-03-13T00:04:29.905Z,0
2017-03-13T00:05:29.889Z,0
2017-03-13T00:06:29.469Z,0
2017-03-13T00:07:29.463Z,0
2017-03-13T00:08:29.851Z,0
2017-03-13T00:09:29.809Z,0
2017-03-13T00:10:29.805Z,0
2017-03-13T00:11:29.385Z,0
2017-03-13T00:12:29.782Z,0
2017-03-13T00:13:29.741Z,0
2017-03-13T00:14:29.735Z,0
2017-03-13T00:15:29.307Z,0
2017-03-13T00:16:29.681Z,0
2017-03-13T00:17:29.666Z,0
2017-03-13T00:18:29.293Z,0
2017-03-13T00:19:29.648Z,0
2017-03-13T00:20:29.619Z,0
2017-03-13T00:21:29.632Z,0
2017-03-13T00:22:29.595Z,0
2017-03-13T00:23:29.174Z,0
2017-03-13T00:24:29.550Z,0
2017-03-13T00:25:29.516Z,0
2017-03-13T00:26:29.104Z,0
2017-03-13T00:27:29.495Z,0
2017-03-13T00:28:28.676Z,0
2017-03-13T00:29:29.463Z,0
2017-03-13T00:30:29.447Z,0
2017-03-13T00:31:29.421Z,0
2017-03-13T00:32:29.420Z,0
2017-03-13T00:33:28.596Z,0
2017-03-13T00:34:28.965Z,0
2017-03-13T00:35:29.361Z,0
2017-03-13T00:36:29.359Z,0
2017-03-13T00:37:29.334Z,0
2017-03-13T00:38:29.315Z,0
2017-03-13T00:39:29.308Z,0
2017-03-13T00:40:28.865Z,0
2017-03-13T00:41:29.240Z,0
2017-03-13T00:42:29.229Z,0
2017-03-13T00:43:29.203Z,0
2017-03-13T00:44:29.159Z,0
2017-03-13T00:45:29.162Z,0
2017-03-13T00:46:28.742Z,0
2017-03-13T00:47:29.111Z,0
2017-03-13T00:48:28.729Z,0
2017-03-13T00:49:29.104Z,0
2017-03-13T00:50:29.114Z,0
2017-03-13T00:51:29.071Z,0
2017-03-13T00:52:29.044Z,0
2017-03-13T00:53:29.004Z,0
2017-03-13T00:54:29.026Z,0
2017-03-13T00:55:28.576Z,0
2017-03-13T00:56:28.964Z,0
2017-03-13T00:57:28.930Z,0
2017-03-13T00:58:28.913Z,0
2017-03-13T00:59:28.932Z,0
2017-03-13T01:00:28.517Z,0
2017-03-13T01:01:28.873Z,0
2017-03-13T01:02:28.857Z,0
2017-03-13T01:03:28.821Z,0
2017-03-13T01:04:28.011Z,0
2017-03-13T01:05:28.795Z,0
2017-03-13T01:06:28.782Z,0
2017-03-13T01:07:28.760Z,0
2017-03-13T01:08:28.732Z,0
2017-03-13T01:09:28.711Z,0
2017-03-13T01:10:28.703Z,0
2017-03-13T01:11:28.709Z,0
2017-03-13T01:12:28.664Z,0
2017-03-13T01:13:28.232Z,0
2017-03-13T01:14:28.645Z,0
2017-03-13T01:15:28.627Z,0
2017-03-13T01:16:28.590Z,0
2017-03-13T01:17:28.566Z,0
2017-03-13T01:18:28.151Z,0
2017-03-13T01:19:28.541Z,0
2017-03-13T01:20:28.497Z,0
2017-03-13T01:21:28.508Z,0
2017-03-13T01:22:28.489Z,0
2017-03-13T01:23:28.505Z,0
2017-03-13T01:24:28.479Z,0
2017-03-13T01:25:28.024Z,0
2017-03-13T01:26:28.036Z,0
2017-03-13T01:27:28.039Z,0
2017-03-13T01:28:28.364Z,0
2017-03-13T01:29:28.382Z,0
2017-03-13T01:30:28.324Z,0
2017-03-13T01:31:28.317Z,0
2017-03-13T01:32:28.302Z,0
2017-03-13T01:33:28.278Z,0
2017-03-13T01:34:28.258Z,0
2017-03-13T01:35:27.830Z,0
2017-03-13T01:36:28.223Z,0
2017-03-13T01:37:28.204Z,0
2017-03-13T01:38:27.776Z,0
2017-03-13T01:39:27.769Z,0
2017-03-13T01:40:28.141Z,0
2017-03-13T01:41:27.772Z,0
2017-03-13T01:42:28.107Z,0
2017-03-13T01:43:28.093Z,0
2017-03-13T01:44:27.667Z,0
2017-03-13T01:45:28.061Z,0
2017-03-13T01:46:27.646Z,0
2017-03-13T01:47:28.010Z,0
2017-03-13T01:48:27.998Z,0
2017-03-13T01:49:28.007Z,0
2017-03-13T01:50:27.965Z,0
2017-03-13T01:51:27.984Z,0
2017-03-13T01:52:27.937Z,0
2017-03-13T01:53:27.923Z,0
2017-03-13T01:54:27.875Z,0
2017-03-13T01:55:27.468Z,0
2017-03-13T01:56:27.864Z,0
2017-03-13T01:57:27.836Z,0
2017-03-13T01:58:27.810Z,0
2017-03-13T01:59:27.802Z,0
2017-03-13T02:00:27.399Z,0
2017-03-13T02:01:27.749Z,0
2017-03-13T02:02:27.745Z,0
2017-03-13T02:03:27.740Z,0
2017-03-13T02:04:27.302Z,0
2017-03-13T02:05:27.699Z,0
2017-03-13T02:06:27.683Z,0
2017-03-13T02:07:27.681Z,0
2017-03-13T02:08:27.634Z,0
2017-03-13T02:09:27.236Z,0
2017-03-13T02:10:27.201Z,0
2017-03-13T02:11:27.571Z,0
2017-03-13T02:12:27.562Z,0
2017-03-13T02:13:27.528Z,0
2017-03-13T02:14:27.520Z,0
2017-03-13T02:15:27.496Z,0
2017-03-13T02:16:27.104Z,0
2017-03-13T02:17:27.450Z,0
2017-03-13T02:18:27.441Z,0
2017-03-13T02:19:27.033Z,0
2017-03-13T02:20:27.010Z,0
2017-03-13T02:21:26.995Z,0
2017-03-13T02:22:27.366Z,0
2017-03-13T02:23:27.364Z,0
2017-03-13T02:24:27.330Z,0
2017-03-13T02:25:27.308Z,0
2017-03-13T02:26:27.288Z,0
2017-03-13T02:27:27.272Z,0
2017-03-13T02:28:27.278Z,0
2017-03-13T02:29:26.838Z,0
2017-03-13T02:30:27.228Z,0
2017-03-13T02:31:26.806Z,0
2017-03-13T02:32:27.201Z,0
2017-03-13T02:33:27.180Z,0
2017-03-13T02:34:27.169Z,0
2017-03-13T02:35:26.729Z,0
2017-03-13T02:36:26.714Z,0
2017-03-13T02:37:27.091Z,0
2017-03-13T02:38:27.078Z,0
2017-03-13T02:39:26.653Z,0
2017-03-13T02:40:27.047Z,0
2017-03-13T02:41:26.631Z,0
2017-03-13T02:42:27.014Z,0
2017-03-13T02:43:26.981Z,0
2017-03-13T02:44:25.778Z,0
2017-03-13T02:45:26.166Z,0
2017-03-13T02:46:26.932Z,0
2017-03-13T02:47:26.520Z,0
2017-03-13T02:48:26.476Z,0
2017-03-13T02:49:25.702Z,0
2017-03-13T02:50:26.471Z,0
2017-03-13T02:51:26.459Z,0
2017-03-13T02:52:26.820Z,0
2017-03-13T02:53:26.821Z,0
2017-03-13T02:54:26.385Z,0
2017-03-13T02:55:26.770Z,0
2017-03-13T02:56:26.742Z,0
2017-03-13T02:57:26.732Z,0
2017-03-13T02:58:26.728Z,0
2017-03-13T02:59:26.280Z,0
2017-03-13T03:00:26.271Z,0
2017-03-13T03:01:26.668Z,0
2017-03-13T03:02:26.628Z,0
2017-03-13T03:03:26.606Z,0
2017-03-13T03:04:26.600Z,0
2017-03-13T03:05:26.582Z,0
2017-03-13T03:06:26.554Z,0
2017-03-13T03:07:26.143Z,0
2017-03-13T03:08:26.520Z,0
2017-03-13T03:09:26.492Z,0
2017-03-13T03:10:26.502Z,0
2017-03-13T03:11:26.459Z,0
2017-03-13T03:12:26.048Z,0
2017-03-13T03:13:26.442Z,0
2017-03-13T03:14:26.403Z,0
2017-03-13T03:15:26.400Z,0
2017-03-13T03:16:25.974Z,0
2017-03-13T03:17:25.948Z,0
2017-03-13T03:18:26.328Z,0
2017-03-13T03:19:26.318Z,0
2017-03-13T03:20:26.302Z,0
2017-03-13T03:21:26.274Z,0
2017-03-13T03:22:26.256Z,0
2017-03-13T03:23:26.251Z,0
2017-03-13T03:24:26.215Z,0
2017-03-13T03:25:26.207Z,0
2017-03-13T03:26:25.791Z,0
2017-03-13T03:27:26.163Z,0
2017-03-13T03:28:25.746Z,0
2017-03-13T03:29:26.127Z,0
2017-03-13T03:30:26.111Z,0
2017-03-13T03:31:26.111Z,0
2017-03-13T03:32:26.069Z,0
2017-03-13T03:33:26.059Z,0
2017-03-13T03:34:25.260Z,0
2017-03-13T03:35:26.035Z,0
2017-03-13T03:36:25.994Z,0
2017-03-13T03:37:26.024Z,0
2017-03-13T03:38:25.979Z,0
2017-03-13T03:39:25.953Z,0
2017-03-13T03:40:25.924Z,0
2017-03-13T03:41:25.513Z,0
2017-03-13T03:42:25.878Z,0
2017-03-13T03:43:25.470Z,0
2017-03-13T03:44:25.849Z,0
2017-03-13T03:45:25.825Z,0
2017-03-13T03:46:25.833Z,0
2017-03-13T03:47:25.400Z,0
2017-03-13T03:48:25.788Z,0
2017-03-13T03:49:25.760Z,0
2017-03-13T03:50:25.345Z,0
2017-03-13T03:51:25.735Z,0
2017-03-13T03:52:25.720Z,0
2017-03-13T03:53:25.283Z,0
2017-03-13T03:54:25.666Z,0
2017-03-13T03:55:25.661Z,0
2017-03-13T03:56:25.239Z,0
2017-03-13T03:57:25.249Z,0
2017-03-13T03:58:25.609Z,0
2017-03-13T03:59:25.570Z,0
2017-03-13T04:00:25.159Z,0
2017-03-13T04:01:25.561Z,0
2017-03-13T04:02:25.519Z,0
2017-03-13T04:03:25.515Z,0
2017-03-13T04:04:24.690Z,0
2017-03-13T04:05:25.069Z,0
2017-03-13T04:06:25.061Z,0
2017-03-13T04:07:24.635Z,0
2017-03-13T04:08:25.015Z,0
2017-03-13T04:09:25.394Z,0
2017-03-13T04:10:24.568Z,0
2017-03-13T04:11:25.346Z,0
2017-03-13T04:12:25.320Z,0
2017-03-13T04:13:25.320Z,0
2017-03-13T04:14:24.906Z,0
2017-03-13T04:15:25.295Z,0
2017-03-13T04:16:25.272Z,0
2017-03-13T04:17:25.250Z,0
2017-03-13T04:18:24.816Z,0
2017-03-13T04:19:25.208Z,0
2017-03-13T04:20:24.807Z,0
2017-03-13T04:21:24.784Z,0
2017-03-13T04:22:24.375Z,0
2017-03-13T04:23:24.730Z,0
2017-03-13T04:24:25.115Z,0
2017-03-13T04:25:25.093Z,0
2017-03-13T04:26:24.689Z,0
2017-03-13T04:27:24.671Z,0
2017-03-13T04:28:24.644Z,0
2017-03-13T04:29:25.032Z,0
2017-03-13T04:30:24.620Z,0
2017-03-13T04:31:24.974Z,0
2017-03-13T04:32:24.573Z,0
2017-03-13T04:33:24.544Z,0
2017-03-13T04:34:24.945Z,0
2017-03-13T04:35:24.529Z,0
2017-03-13T04:36:24.515Z,0
2017-03-13T04:37:24.101Z,0
2017-03-13T04:38:24.859Z,0
2017-03-13T04:39:24.842Z,0
2017-03-13T04:40:24.416Z,0
2017-03-13T04:41:24.793Z,0
2017-03-13T04:42:24.368Z,0
2017-03-13T04:43:24.764Z,0
2017-03-13T04:44:24.740Z,0
2017-03-13T04:45:24.351Z,0
2017-03-13T04:46:24.309Z,0
2017-03-13T04:47:24.679Z,0
2017-03-13T04:48:24.681Z,0
2017-03-13T04:49:24.645Z,0
2017-03-13T04:50:24.640Z,0
2017-03-13T04:51:24.600Z,0
2017-03-13T04:52:24.188Z,0
2017-03-13T04:53:24.583Z,0
2017-03-13T04:54:24.581Z,0
2017-03-13T04:55:24.531Z,0
2017-03-13T04:56:24.519Z,0
2017-03-13T04:57:24.514Z,0
2017-03-13T04:58:24.492Z,0
2017-03-13T04:59:24.462Z,0
2017-03-13T05:00:24.458Z,0
2017-03-13T05:01:24.026Z,0
2017-03-13T05:02:24.411Z,0
2017-03-13T05:03:24.001Z,0
2017-03-13T05:04:23.965Z,0
2017-03-13T05:05:24.368Z,0
2017-03-13T05:06:23.980Z,0
2017-03-13T05:07:23.915Z,0
2017-03-13T05:08:23.902Z,0
2017-03-13T05:09:24.295Z,0
2017-03-13T05:10:24.249Z,0
2017-03-13T05:11:24.255Z,0
2017-03-13T05:12:23.837Z,0
2017-03-13T05:13:24.216Z,0
2017-03-13T05:14:24.175Z,0
2017-03-13T05:15:24.177Z,0
2017-03-13T05:16:23.753Z,0
2017-03-13T05:17:24.148Z,0
2017-03-13T05:18:24.105Z,0
2017-03-13T05:19:24.126Z,0
2017-03-13T05:20:24.076Z,0
2017-03-13T05:21:23.665Z,0
2017-03-13T05:22:24.057Z,0
2017-03-13T05:23:24.033Z,0
2017-03-13T05:24:24.024Z,5
2017-03-13T05:25:23.980Z,5
2017-03-13T05:26:23.950Z,5
2017-03-13T05:27:23.948Z,5
2017-03-13T05:28:23.921Z,5
2017-03-13T05:29:23.912Z,5
2017-03-13T05:30:23.910Z,5
2017-03-13T05:31:23.876Z,5
2017-03-13T05:32:23.455Z,10
2017-03-13T05:33:23.834Z,10
2017-03-13T05:34:23.451Z,10
2017-03-13T05:35:23.787Z,10
2017-03-13T05:36:23.796Z,10
2017-03-13T05:37:23.365Z,10
2017-03-13T05:38:23.335Z,15
2017-03-13T05:39:23.742Z,15
2017-03-13T05:40:23.705Z,15
2017-03-13T05:41:22.916Z,15
2017-03-13T05:42:23.683Z,20
2017-03-13T05:43:23.668Z,20
2017-03-13T05:44:23.653Z,20
2017-03-13T05:45:23.214Z,20
2017-03-13T05:46:23.595Z,25
2017-03-13T05:47:22.775Z,25
2017-03-13T05:48:23.165Z,25
2017-03-13T05:49:23.538Z,25
2017-03-13T05:50:23.537Z,30
2017-03-13T05:51:23.515Z,30
2017-03-13T05:52:23.495Z,30
2017-03-13T05:53:23.453Z,30
2017-03-13T05:54:23.450Z,30
2017-03-13T05:55:23.459Z,30
2017-03-13T05:56:23.434Z,30
2017-03-13T05:57:23.424Z,30
2017-03-13T05:58:23.361Z,35
2017-03-13T05:59:22.970Z,35
2017-03-13T06:00:23.323Z,35
2017-03-13T06:01:22.917Z,35
2017-03-13T06:02:22.495Z,35
2017-03-13T06:03:22.905Z,40
2017-03-13T06:04:23.259Z,40
2017-03-13T06:05:22.856Z,45
2017-03-13T06:06:22.828Z,45
2017-03-13T06:07:22.807Z,45
2017-03-13T06:08:23.214Z,50
2017-03-13T06:09:23.158Z,50
2017-03-13T06:10:23.154Z,50
2017-03-13T06:11:22.755Z,55
2017-03-13T06:12:23.120Z,55
2017-03-13T06:13:22.696Z,60
2017-03-13T06:14:22.706Z,60
2017-03-13T06:15:22.250Z,60
2017-03-13T06:16:22.635Z,65
2017-03-13T06:17:22.632Z,70
2017-03-13T06:18:22.614Z,70
2017-03-13T06:19:22.990Z,75
2017-03-13T06:20:22.968Z,75
2017-03-13T06:21:22.563Z,75
2017-03-13T06:22:22.931Z,80
2017-03-13T06:23:22.514Z,80
2017-03-13T06:24:22.508Z,85
2017-03-13T06:25:22.881Z,85
2017-03-13T06:26:22.858Z,85
2017-03-13T06:27:22.853Z,95
2017-03-13T06:28:22.833Z,100
2017-03-13T06:29:22.462Z,105
2017-03-13T06:30:22.385Z,115
2017-03-13T06:31:22.364Z,125
2017-03-13T06:32:22.762Z,130
2017-03-13T06:33:22.726Z,140
2017-03-13T06:34:22.715Z,145
2017-03-13T06:35:22.697Z,140
2017-03-13T06:36:22.682Z,140
2017-03-13T06:37:22.275Z,140
2017-03-13T06:38:22.655Z,140
2017-03-13T06:39:22.631Z,140
2017-03-13T06:40:22.225Z,140
2017-03-13T06:41:22.593Z,140
2017-03-13T06:42:22.577Z,145
2017-03-13T06:43:22.150Z,150
2017-03-13T06:44:22.563Z,155
2017-03-13T06:45:22.532Z,155
2017-03-13T06:46:22.508Z,160
2017-03-13T06:47:22.509Z,165
2017-03-13T06:48:22.501Z,175
2017-03-13T06:49:22.052Z,170
2017-03-13T06:50:22.442Z,175
2017-03-13T06:51:22.419Z,170
2017-03-13T06:52:22.412Z,170
2017-03-13T06:53:22.391Z,165
2017-03-13T06:54:22.001Z,165
2017-03-13T06:55:22.360Z,160
2017-03-13T06:56:22.349Z,160
2017-03-13T06:57:22.327Z,155
2017-03-13T06:58:22.325Z,150
2017-03-13T06:59:22.294Z,145
2017-03-13T07:00:21.887Z,140
2017-03-13T07:01:21.870Z,140
2017-03-13T07:02:21.852Z,140
2017-03-13T07:03:22.218Z,140
2017-03-13T07:04:22.199Z,145
2017-03-13T07:05:21.837Z,150
2017-03-13T07:06:22.203Z,160
2017-03-13T07:07:22.181Z,160
2017-03-13T07:08:22.152Z,165
2017-03-13T07:09:22.151Z,160
2017-03-13T07:10:21.704Z,165
2017-03-13T07:11:22.098Z,170
2017-03-13T07:12:22.113Z,165
2017-03-13T07:13:22.065Z,165
2017-03-13T07:14:22.043Z,160
2017-03-13T07:15:21.645Z,160
2017-03-13T07:16:22.022Z,160
2017-03-13T07:17:21.240Z,155
2017-03-13T07:18:22.005Z,160
2017-03-13T07:19:21.993Z,165
2017-03-13T07:20:21.951Z,165
2017-03-13T07:21:21.544Z,165
2017-03-13T07:22:21.929Z,170
2017-03-13T07:23:21.897Z,170
2017-03-13T07:24:21.918Z,175
2017-03-13T07:25:21.878Z,175
2017-03-13T07:26:21.862Z,175
2017-03-13T07:27:21.845Z,175
2017-03-13T07:28:21.821Z,170
2017-03-13T07:29:21.843Z,165
2017-03-13T07:30:21.808Z,165
2017-03-13T07:31:21.391Z,155
2017-03-13T07:32:21.383Z,150
2017-03-13T07:33:21.383Z,145
2017-03-13T07:34:21.739Z,135
2017-03-13T07:35:21.741Z,130
2017-03-13T07:36:21.734Z,120
2017-03-13T07:37:21.701Z,120
2017-03-13T07:38:21.702Z,115
2017-03-13T07:39:21.687Z,115
2017-03-13T07:40:21.711Z,115
2017-03-13T07:41:21.263Z,115
2017-03-13T07:42:21.231Z,115
2017-03-13T07:43:21.612Z,110
2017-03-13T07:44:21.599Z,105
2017-03-13T07:45:21.202Z,100
2017-03-13T07:46:21.578Z,100
2017-03-13T07:47:21.549Z,100
2017-03-13T07:48:21.522Z,100
2017-03-13T07:49:21.531Z,105
2017-03-13T07:50:21.127Z,105
2017-03-13T07:51:21.476Z,110
2017-03-13T07:52:21.499Z,115
2017-03-13T07:53:21.456Z,115
2017-03-13T07:54:21.447Z,115
2017-03-13T07:55:21.450Z,120
2017-03-13T07:56:21.405Z,120
2017-03-13T07:57:21.382Z,120
2017-03-13T07:58:21.376Z,120
2017-03-13T07:59:21.373Z,120
2017-03-13T08:00:21.353Z,120
2017-03-13T08:01:20.929Z,120
2017-03-13T08:02:21.337Z,120
2017-03-13T08:03:21.318Z,120
2017-03-13T08:04:20.473Z,120
2017-03-13T08:05:21.289Z,120
2017-03-13T08:06:20.864Z,120
2017-03-13T08:07:21.263Z,120
2017-03-13T08:08:21.214Z,120
2017-03-13T08:09:21.223Z,125
2017-03-13T08:10:21.202Z,125
2017-03-13T08:11:21.215Z,125
2017-03-13T08:12:20.773Z,125
2017-03-13T08:13:21.167Z,125
2017-03-13T08:14:21.171Z,125
2017-03-13T08:15:21.136Z,125
2017-03-13T08:16:21.104Z,125
2017-03-13T08:17:21.097Z,130
2017-03-13T08:18:21.094Z,130
2017-03-13T08:19:21.052Z,130
2017-03-13T08:20:20.667Z,130
2017-03-13T08:21:20.626Z,130
2017-03-13T08:22:20.613Z,135
2017-03-13T08:23:20.617Z,135
2017-03-13T08:24:20.983Z,130
2017-03-13T08:25:20.966Z,130
2017-03-13T08:26:20.949Z,130
2017-03-13T08:27:20.952Z,130
2017-03-13T08:28:20.938Z,130
2017-03-13T08:29:20.525Z,130
2017-03-13T08:30:20.912Z,135
2017-03-13T08:31:20.536Z,135
2017-03-13T08:32:20.892Z,135
2017-03-13T08:33:20.454Z,135
2017-03-13T08:34:20.864Z,135
2017-03-13T08:35:20.817Z,140
2017-03-13T08:36:20.428Z,140
2017-03-13T08:37:20.404Z,140
2017-03-13T08:38:20.802Z,140
2017-03-13T08:39:20.778Z,140
2017-03-13T08:40:20.751Z,140
2017-03-13T08:41:20.739Z,140
2017-03-13T08:42:20.738Z,140
2017-03-13T08:43:20.725Z,140
2017-03-13T08:44:20.705Z,145
2017-03-13T08:45:20.312Z,145
2017-03-13T08:46:20.274Z,145
2017-03-13T08:47:20.269Z,150
2017-03-13T08:48:20.639Z,150
2017-03-13T08:49:20.243Z,155
2017-03-13T08:50:20.624Z,155
2017-03-13T08:51:20.609Z,150
2017-03-13T08:52:20.605Z,140
2017-03-13T08:53:20.575Z,140
2017-03-13T08:54:20.556Z,145
2017-03-13T08:55:20.574Z,145
2017-03-13T08:56:20.155Z,140
2017-03-13T08:57:20.520Z,130
2017-03-13T08:58:20.513Z,130
2017-03-13T08:59:19.709Z,140
2017-03-13T09:00:20.521Z,130
2017-03-13T09:01:20.088Z,140
2017-03-13T09:02:20.449Z,140
2017-03-13T09:03:20.451Z,150
2017-03-13T09:04:20.429Z,155
2017-03-13T09:05:20.423Z,150
2017-03-13T09:06:20.403Z,155
2017-03-13T09:07:20.401Z,170
2017-03-13T09:08:20.390Z,175
2017-03-13T09:09:19.980Z,175
2017-03-13T09:10:20.368Z,175
2017-03-13T09:11:20.334Z,175
2017-03-13T09:12:19.932Z,170
2017-03-13T09:13:20.312Z,165
2017-03-13T09:14:20.293Z,155
2017-03-13T09:15:20.288Z,145
2017-03-13T09:16:20.269Z,130
2017-03-13T09:17:20.270Z,135
2017-03-13T09:18:20.233Z,155
2017-03-13T09:19:19.836Z,145
2017-03-13T09:20:20.216Z,130
2017-03-13T09:21:20.204Z,155
2017-03-13T09:22:20.213Z,160
2017-03-13T09:23:19.793Z,170
2017-03-13T09:24:20.161Z,180
2017-03-13T09:25:20.153Z,180
2017-03-13T09:26:20.151Z,175
2017-03-13T09:27:20.150Z,170
2017-03-13T09:28:20.130Z,170
2017-03-13T09:29:20.102Z,170
2017-03-13T09:30:20.080Z,170
2017-03-13T09:31:20.104Z,160
2017-03-13T09:32:20.069Z,150
2017-03-13T09:33:19.652Z,150
2017-03-13T09:34:19.644Z,145
2017-03-13T09:35:20.028Z,140
2017-03-13T09:36:19.635Z,135
2017-03-13T09:37:19.622Z,125
2017-03-13T09:38:19.592Z,125
2017-03-13T09:39:19.993Z,125
2017-03-13T09:40:19.964Z,125
2017-03-13T09:41:19.954Z,140
2017-03-13T09:42:19.145Z,145
2017-03-13T09:43:19.932Z,150
2017-03-13T09:44:19.924Z,150
2017-03-13T09:45:19.140Z,150
2017-03-13T09:46:19.907Z,150
2017-03-13T09:47:19.873Z,155
2017-03-13T09:48:19.063Z,160
2017-03-13T09:49:19.876Z,170
2017-03-13T09:50:19.845Z,180
2017-03-13T09:51:19.447Z,185
2017-03-13T09:52:19.825Z,190
2017-03-13T09:53:19.806Z,195
2017-03-13T09:54:19.415Z,195
2017-03-13T09:55:18.980Z,195
2017-03-13T09:56:19.770Z,185
2017-03-13T09:57:19.361Z,180
2017-03-13T09:58:19.787Z,180
2017-03-13T09:59:19.723Z,180
2017-03-13T10:00:18.934Z,185
2017-03-13T10:01:19.319Z,185
2017-03-13T10:02:19.318Z,170
2017-03-13T10:03:19.315Z,155
2017-03-13T10:04:19.273Z,150
2017-03-13T10:05:18.910Z,150
2017-03-13T10:06:18.855Z,160
2017-03-13T10:07:19.645Z,160
2017-03-13T10:08:19.626Z,165
2017-03-13T10:09:19.629Z,160
2017-03-13T10:10:19.624Z,160
2017-03-13T10:11:19.603Z,160
2017-03-13T10:12:19.583Z,175
2017-03-13T10:13:19.575Z,180
2017-03-13T10:14:19.160Z,180
2017-03-13T10:15:19.546Z,175
2017-03-13T10:16:19.132Z,170
2017-03-13T10:17:19.545Z,170
2017-03-13T10:18:19.142Z,170
2017-03-13T10:19:19.514Z,165
2017-03-13T10:20:19.495Z,160
2017-03-13T10:21:19.490Z,150
2017-03-13T10:22:19.049Z,150
2017-03-13T10:23:19.053Z,135
2017-03-13T10:24:19.452Z,135
2017-03-13T10:25:19.439Z,130
2017-03-13T10:26:19.447Z,135
2017-03-13T10:27:19.412Z,145
2017-03-13T10:28:19.009Z,155
2017-03-13T10:29:19.400Z,160
2017-03-13T10:30:19.004Z,170
2017-03-13T10:31:19.401Z,165
2017-03-13T10:32:19.382Z,170
2017-03-13T10:33:18.974Z,170
2017-03-13T10:34:18.958Z,170
2017-03-13T10:35:19.320Z,175
2017-03-13T10:36:18.926Z,180
2017-03-13T10:37:18.927Z,180
2017-03-13T10:38:18.504Z,185
2017-03-13T10:39:18.906Z,185
2017-03-13T10:40:18.869Z,190
2017-03-13T10:41:18.872Z,190
2017-03-13T10:42:19.240Z,190
2017-03-13T10:43:19.255Z,195
2017-03-13T10:44:19.241Z,195
2017-03-13T10:45:18.844Z,195
2017-03-13T10:46:19.203Z,200
2017-03-13T10:47:19.182Z,200
2017-03-13T10:48:18.778Z,200
2017-03-13T10:49:19.159Z,200
2017-03-13T10:50:18.792Z,200
2017-03-13T10:51:18.756Z,200
2017-03-13T10:52:19.149Z,200
2017-03-13T10:53:19.132Z,200
2017-03-13T10:54:18.725Z,200
2017-03-13T10:55:18.740Z,205
2017-03-13T10:56:19.106Z,205
2017-03-13T10:57:18.687Z,205
2017-03-13T10:58:18.666Z,205
2017-03-13T10:59:19.090Z,205
2017-03-13T11:00:18.649Z,205
2017-03-13T11:01:19.030Z,205
2017-03-13T11:02:19.040Z,200
2017-03-13T11:03:19.023Z,195
2017-03-13T11:04:19.002Z,190
2017-03-13T11:05:19.008Z,185
2017-03-13T11:06:18.589Z,185
2017-03-13T11:07:18.992Z,180
2017-03-13T11:08:18.974Z,180
2017-03-13T11:09:18.978Z,175
2017-03-13T11:10:18.977Z,175
2017-03-13T11:11:18.526Z,170
2017-03-13T11:12:18.934Z,170
2017-03-13T11:13:18.917Z,165
2017-03-13T11:14:18.515Z,160
2017-03-13T11:15:18.899Z,160
2017-03-13T11:16:18.872Z,160
2017-03-13T11:17:18.894Z,160
2017-03-13T11:18:18.843Z,160
2017-03-13T11:19:18.852Z,155
2017-03-13T11:20:18.839Z,155
2017-03-13T11:21:18.834Z,155
2017-03-13T11:22:18.811Z,155
2017-03-13T11:23:18.824Z,155
2017-03-13T11:24:18.391Z,155
2017-03-13T11:25:18.398Z,155
2017-03-13T11:26:18.789Z,155
2017-03-13T11:27:18.771Z,155
2017-03-13T11:28:18.756Z,155
2017-03-13T11:29:18.745Z,155
2017-03-13T11:30:18.746Z,160
2017-03-13T11:31:18.329Z,155
2017-03-13T11:32:18.725Z,155
2017-03-13T11:33:18.330Z,155
2017-03-13T11:34:18.733Z,155
2017-03-13T11:35:18.700Z,155
2017-03-13T11:36:18.679Z,155
2017-03-13T11:37:18.664Z,155
2017-03-13T11:38:18.645Z,155
2017-03-13T11:39:18.244Z,155
2017-03-13T11:40:18.240Z,155
2017-03-13T11:41:18.228Z,155
2017-03-13T11:42:18.214Z,155
2017-03-13T11:43:18.605Z,155
2017-03-13T11:44:18.205Z,155
2017-03-13T11:45:18.177Z,155
2017-03-13T11:46:18.577Z,155
2017-03-13T11:47:18.566Z,155
2017-03-13T11:48:18.543Z,155
2017-03-13T11:49:18.539Z,155
2017-03-13T11:50:18.550Z,155
2017-03-13T11:51:18.525Z,160
2017-03-13T11:52:18.508Z,160
2017-03-13T11:53:18.563Z,155
2017-03-13T11:54:18.505Z,155
2017-03-13T11:55:18.503Z,155
2017-03-13T11:56:18.072Z,155
2017-03-13T11:57:18.450Z,155
2017-03-13T11:58:18.457Z,155
2017-03-13T11:59:18.043Z,155
2017-03-13T12:00:18.034Z,155
2017-03-13T12:01:18.601Z,155
2017-03-13T12:02:18.025Z,155
2017-03-13T12:03:18.397Z,155
2017-03-13T12:04:18.388Z,150
2017-03-13T12:05:18.401Z,150
2017-03-13T12:06:18.380Z,150
2017-03-13T12:07:18.378Z,155
2017-03-13T12:08:18.189Z,150
2017-03-13T12:09:17.934Z,155
2017-03-13T12:10:18.478Z,155
2017-03-13T12:11:18.316Z,155
2017-03-13T12:12:17.912Z,155
2017-03-13T12:13:17.899Z,155
2017-03-13T12:14:18.283Z,155
2017-03-13T12:15:18.276Z,155
2017-03-13T12:16:18.241Z,155
2017-03-13T12:17:17.444Z,155
2017-03-13T12:18:17.891Z,155
2017-03-13T12:19:17.844Z,155
2017-03-13T12:20:17.836Z,155
2017-03-13T12:21:18.244Z,155
2017-03-13T12:22:18.209Z,155
2017-03-13T12:23:17.851Z,160
2017-03-13T12:24:17.778Z,155
2017-03-13T12:25:18.193Z,160
2017-03-13T12:26:18.164Z,155
2017-03-13T12:27:18.171Z,155
2017-03-13T12:28:18.148Z,155
2017-03-13T12:29:18.138Z,155
2017-03-13T12:30:18.131Z,155
2017-03-13T12:31:18.124Z,155
2017-03-13T12:32:17.701Z,150
2017-03-13T12:33:18.093Z,150
2017-03-13T12:34:17.758Z,150
2017-03-13T12:35:18.102Z,150
2017-03-13T12:36:18.060Z,145
2017-03-13T12:37:18.064Z,145
2017-03-13T12:38:18.060Z,145
2017-03-13T12:39:17.626Z,145
2017-03-13T12:40:17.623Z,145
2017-03-13T12:41:17.609Z,145
2017-03-13T12:42:17.996Z,145
2017-03-13T12:43:17.998Z,145
2017-03-13T12:44:17.606Z,145
2017-03-13T12:45:17.980Z,145
2017-03-13T12:46:17.563Z,150
2017-03-13T12:47:17.182Z,150
2017-03-13T12:48:17.553Z,150
2017-03-13T12:49:17.953Z,150
2017-03-13T12:50:17.922Z,155
2017-03-13T12:51:17.916Z,155
2017-03-13T12:54:15.033Z,160
2017-03-13T12:54:25.028Z,160
2017-03-13T12:55:25.393Z,160
2017-03-13T12:56:25.396Z,160
2017-03-13T12:57:25.421Z,160
2017-03-13T12:58:25.368Z,165
2017-03-13T12:59:25.350Z,165
2017-03-13T13:00:24.920Z,170
2017-03-13T13:01:24.910Z,175
2017-03-13T13:02:25.293Z,175
2017-03-13T13:03:24.604Z,175
2017-03-13T13:04:25.274Z,175
2017-03-13T13:05:25.276Z,180
2017-03-13T13:06:25.265Z,185
2017-03-13T13:07:25.251Z,185
2017-03-13T13:08:25.236Z,190
2017-03-13T13:09:25.224Z,195
2017-03-13T13:10:25.209Z,195
2017-03-13T13:11:25.204Z,200
2017-03-13T13:12:25.352Z,205
2017-03-13T13:13:24.387Z,205
2017-03-13T13:14:25.168Z,210
2017-03-13T13:15:25.164Z,210
2017-03-13T13:16:25.148Z,210
2017-03-13T13:17:25.144Z,220
2017-03-13T13:18:24.740Z,225
2017-03-13T13:19:24.736Z,235
2017-03-13T13:20:25.120Z,235
2017-03-13T13:21:24.715Z,240
2017-03-13T13:22:24.707Z,245
2017-03-13T13:23:25.090Z,250
2017-03-13T13:24:25.079Z,255
2017-03-13T13:25:24.677Z,260
2017-03-13T13:26:24.666Z,265
2017-03-13T13:27:25.054Z,270
2017-03-13T13:28:24.644Z,270
2017-03-13T13:29:24.278Z,270
2017-03-13T13:30:24.253Z,270
2017-03-13T13:31:24.618Z,270
2017-03-13T13:32:24.607Z,270
2017-03-13T13:33:24.995Z,275
2017-03-13T13:34:24.597Z,275
2017-03-13T13:35:24.989Z,275
2017-03-13T13:36:24.964Z,275
2017-03-13T13:37:24.558Z,280
2017-03-13T13:38:24.958Z,280
2017-03-13T13:39:24.398Z,280
2017-03-13T13:40:24.932Z,285
2017-03-13T13:41:24.924Z,285
2017-03-13T13:42:24.918Z,285
2017-03-13T13:43:24.908Z,285
2017-03-13T13:44:24.528Z,285
2017-03-13T13:45:24.892Z,290
2017-03-13T13:46:24.878Z,290
2017-03-13T13:47:24.866Z,290
2017-03-13T13:48:24.463Z,290
2017-03-13T13:49:24.460Z,290
2017-03-13T13:50:24.840Z,285
2017-03-13T13:51:24.828Z,285
2017-03-13T13:52:24.827Z,285
2017-03-13T13:53:24.423Z,285
2017-03-13T13:54:24.821Z,280
2017-03-13T13:55:24.804Z,280
2017-03-13T13:56:24.795Z,280
2017-03-13T13:57:24.796Z,275
2017-03-13T13:58:24.797Z,275
2017-03-13T13:59:24.366Z,270
2017-03-13T14:00:24.711Z,265
2017-03-13T14:01:24.754Z,260
2017-03-13T14:02:24.735Z,260
2017-03-13T14:03:24.724Z,260
2017-03-13T14:04:24.326Z,255
2017-03-13T14:05:23.912Z,255
2017-03-13T14:06:24.704Z,250
2017-03-13T14:07:24.292Z,245
2017-03-13T14:08:24.684Z,245
2017-03-13T14:09:24.282Z,245
2017-03-13T14:10:24.276Z,245
2017-03-13T14:11:24.665Z,245